Time;durP1;ratioP1;P1;durP2;ratioP2;P2;SDS_P1;SDS_P2;PMS_P1;PMS_P2;Temp;Humidity;BMP_temperature;BMP_pressure;BME280_temperature;BME280_humidity;BME280_pressure;Samples;Min_cycle;Max_cycle;Signal;HPM_P1;HPM_P2
2022/05/24 00:02:02;;;;;;;5.30;1.20;;;;;;;;;;5055686;28;20059;-46
2022/05/24 00:04:28;;;;;;;1.00;1.00;;;;;;;;;;5055731;28;20031;-44
2022/05/24 00:06:53;;;;;;;0.80;0.80;;;;;;;;;;5055287;28;20037;-45
2022/05/24 00:09:19;;;;;;;1.80;1.05;;;;;;;;;;5055665;28;20094;-44
2022/05/24 00:11:44;;;;;;;2.42;1.50;;;;;;;;;;5055607;28;20468;-44
2022/05/24 00:14:10;;;;;;;4.22;1.40;;;;;;;;;;5055525;28;20024;-45
2022/05/24 00:16:35;;;;;;;1.95;1.40;;;;;;;;;;5055233;28;20025;-45
2022/05/24 00:19:00;;;;;;;1.10;1.10;;;;;;;;;;5055402;28;20024;-44
2022/05/24 00:21:26;;;;;;;1.10;1.00;;;;;;;;;;5055145;28;20060;-44
2022/05/24 00:23:52;;;;;;;1.50;1.40;;;;;;;;;;5054987;28;20036;-44
2022/05/24 00:26:27;;;;;;;2.05;1.63;;;;;;;;;;5055193;28;20025;-45
2022/05/24 00:28:53;;;;;;;1.30;1.20;;;;;;;;;;5054968;28;20029;-45
2022/05/24 00:31:18;;;;;;;1.27;1.08;;;;;;;;;;5054967;28;20031;-44
2022/05/24 00:33:44;;;;;;;2.20;2.00;;;;;;;;;;5055191;28;20017;-44
2022/05/24 00:36:09;;;;;;;2.13;1.63;;;;;;;;;;5055082;28;20376;-44
2022/05/24 00:38:39;;;;;;;6.07;1.80;;;;;;;;;;5054409;28;20370;-46
2022/05/24 00:41:25;;;;;;;1.73;1.55;;;;;;;;;;5055093;28;20447;-44
2022/05/24 00:44:00;;;;;;;8.15;1.38;;;;;;;;;;5054515;28;20048;-44
2022/05/24 00:46:39;;;;;;;2.00;1.30;;;;;;;;;;5055038;28;20052;-44
2022/05/24 00:49:09;;;;;;;1.83;1.35;;;;;;;;;;5054893;28;20025;-44
2022/05/24 00:51:38;;;;;;;1.70;1.17;;;;;;;;;;5054881;28;20025;-45
2022/05/24 00:54:04;;;;;;;1.50;1.40;;;;;;;;;;5054510;28;20017;-45
2022/05/24 00:56:46;;;;;;;2.33;1.60;;;;;;;;;;5054375;28;20032;-44
2022/05/24 00:59:26;;;;;;;1.10;1.05;;;;;;;;;;5054760;28;20078;-44
2022/05/24 01:01:51;;;;;;;1.60;1.50;;;;;;;;;;5054414;28;20032;-45
2022/05/24 01:04:19;;;;;;;2.67;1.48;;;;;;;;;;5054522;28;20120;-46
2022/05/24 01:06:47;;;;;;;2.97;1.33;;;;;;;;;;5054068;28;20496;-44
2022/05/24 01:09:23;;;;;;;2.85;1.50;;;;;;;;;;5054606;28;20029;-44
2022/05/24 01:11:53;;;;;;;2.65;1.13;;;;;;;;;;5054277;28;20246;-44
2022/05/24 01:14:22;;;;;;;1.67;1.58;;;;;;;;;;5054238;28;20033;-45
2022/05/24 01:16:47;;;;;;;2.25;1.50;;;;;;;;;;5053987;28;20061;-45
2022/05/24 01:19:41;;;;;;;2.20;1.60;;;;;;;;;;5054051;28;20040;-45
2022/05/24 01:22:30;;;;;;;1.55;1.45;;;;;;;;;;5054214;28;20028;-44
2022/05/24 01:25:20;;;;;;;2.00;1.80;;;;;;;;;;5053983;28;20070;-45
2022/05/24 01:27:46;;;;;;;2.38;1.88;;;;;;;;;;5054202;28;20385;-45
2022/05/24 01:30:12;;;;;;;3.92;1.95;;;;;;;;;;5054106;28;20037;-44
2022/05/24 01:38:10;;;;;;;4.75;2.10;;;;;;;;;;5053816;28;20130;-45
2022/05/24 01:40:36;;;;;;;1.83;1.20;;;;;;;;;;5053962;28;20025;-44
2022/05/24 01:43:01;;;;;;;1.95;1.67;;;;;;;;;;5053790;28;20033;-44
2022/05/24 01:45:33;;;;;;;1.52;1.42;;;;;;;;;;5053779;28;20064;-46
2022/05/24 01:48:05;;;;;;;2.17;1.85;;;;;;;;;;5053629;28;20025;-45
2022/05/24 01:50:32;;;;;;;2.50;2.08;;;;;;;;;;5053052;28;20059;-45
2022/05/24 01:53:03;;;;;;;2.88;1.75;;;;;;;;;;5053701;28;20070;-44
2022/05/24 01:55:43;;;;;;;3.78;1.92;;;;;;;;;;5053483;28;20060;-45
2022/05/24 01:58:12;;;;;;;2.63;1.73;;;;;;;;;;5053611;28;20022;-45
2022/05/24 02:00:42;;;;;;;3.15;1.55;;;;;;;;;;5053194;28;20459;-46
2022/05/24 02:03:08;;;;;;;1.90;1.80;;;;;;;;;;5053301;28;20384;-44
2022/05/24 02:05:37;;;;;;;3.33;2.33;;;;;;;;;;5053187;28;20052;-45
2022/05/24 02:08:07;;;;;;;2.15;1.95;;;;;;;;;;5053088;28;20048;-44
2022/05/24 02:10:39;;;;;;;3.05;2.33;;;;;;;;;;5053364;28;20116;-46
2022/05/24 02:13:07;;;;;;;6.13;1.73;;;;;;;;;;5052991;28;20468;-45
2022/05/24 02:15:36;;;;;;;1.42;1.20;;;;;;;;;;5053248;28;20033;-44
2022/05/24 02:18:08;;;;;;;3.58;2.03;;;;;;;;;;5053231;28;20025;-44
2022/05/24 02:20:36;;;;;;;1.77;1.60;;;;;;;;;;5053407;28;20029;-44
2022/05/24 02:23:03;;;;;;;2.53;2.05;;;;;;;;;;5053054;28;20033;-45
2022/05/24 02:25:53;;;;;;;2.78;2.10;;;;;;;;;;5053076;28;20260;-46
2022/05/24 02:28:21;;;;;;;5.85;2.00;;;;;;;;;;5052900;28;20126;-44
2022/05/24 02:30:53;;;;;;;5.20;1.85;;;;;;;;;;5052980;28;20392;-45
2022/05/24 02:33:20;;;;;;;3.42;1.90;;;;;;;;;;5053057;28;20033;-45
2022/05/24 02:35:46;;;;;;;0.80;0.80;;;;;;;;;;5052625;28;20021;-46
2022/05/24 02:38:12;;;;;;;2.80;2.05;;;;;;;;;;5052667;28;20569;-45
2022/05/24 02:43:21;;;;;;;3.33;2.70;;;;;;;;;;5052712;28;20132;-45
2022/05/24 02:45:46;;;;;;;4.93;2.78;;;;;;;;;;5052780;28;20108;-45
2022/05/24 02:48:12;;;;;;;4.75;2.83;;;;;;;;;;5052414;28;20055;-46
2022/05/24 02:50:38;;;;;;;12.90;3.47;;;;;;;;;;5052790;28;20033;-45
2022/05/24 02:53:03;;;;;;;10.00;3.15;;;;;;;;;;5052675;28;20021;-47
2022/05/24 02:55:30;;;;;;;10.15;3.38;;;;;;;;;;5034502;28;20029;-45
2022/05/24 02:57:55;;;;;;;7.97;3.65;;;;;;;;;;5052657;28;20028;-45
2022/05/24 03:00:23;;;;;;;3.42;1.48;;;;;;;;;;5052268;28;20040;-45
2022/05/24 03:02:49;;;;;;;3.60;2.38;;;;;;;;;;5051329;28;20126;-44
2022/05/24 03:05:15;;;;;;;13.23;4.00;;;;;;;;;;5050241;28;20033;-49
2022/05/24 03:10:26;;;;;;;5.45;3.67;;;;;;;;;;5051555;28;20032;-53
2022/05/24 03:15:39;;;;;;;6.38;3.65;;;;;;;;;;5052568;28;20031;-51
2022/05/24 03:18:06;;;;;;;4.32;3.22;;;;;;;;;;5052427;28;20048;-61
2022/05/24 03:20:31;;;;;;;5.55;4.13;;;;;;;;;;5052409;28;20021;-56
2022/05/24 03:22:57;;;;;;;9.90;3.60;;;;;;;;;;5052299;28;20025;-55
2022/05/24 03:25:22;;;;;;;3.17;2.90;;;;;;;;;;5052083;28;20468;-51
2022/05/24 03:27:48;;;;;;;2.55;2.28;;;;;;;;;;5052156;28;20092;-51
2022/05/24 03:30:15;;;;;;;6.00;2.88;;;;;;;;;;5052350;28;20048;-50
2022/05/24 03:32:40;;;;;;;5.60;3.85;;;;;;;;;;5052376;28;20025;-58
2022/05/24 03:35:08;;;;;;;4.75;3.67;;;;;;;;;;5052357;28;20067;-50
2022/05/24 03:37:34;;;;;;;3.63;2.35;;;;;;;;;;5051853;28;20078;-48
2022/05/24 03:39:59;;;;;;;7.70;3.97;;;;;;;;;;5052076;28;20030;-50
2022/05/24 03:42:25;;;;;;;3.55;2.28;;;;;;;;;;5052070;28;20021;-47
2022/05/24 03:44:50;;;;;;;5.70;3.42;;;;;;;;;;5052222;28;20021;-48
2022/05/24 03:47:16;;;;;;;3.28;2.95;;;;;;;;;;5052186;28;20071;-50
2022/05/24 03:49:42;;;;;;;7.25;3.78;;;;;;;;;;5051854;28;20504;-48
2022/05/24 03:52:07;;;;;;;8.38;4.75;;;;;;;;;;5052436;28;20021;-49
2022/05/24 03:54:33;;;;;;;6.80;4.93;;;;;;;;;;5051871;28;20127;-48
2022/05/24 03:59:43;;;;;;;6.60;4.32;;;;;;;;;;5052500;28;20036;-48
2022/05/24 04:02:09;;;;;;;9.25;4.50;;;;;;;;;;5051947;28;20384;-47
2022/05/24 04:04:34;;;;;;;5.43;4.25;;;;;;;;;;5051638;28;20472;-47
2022/05/24 04:07:00;;;;;;;7.15;4.82;;;;;;;;;;5051564;28;20099;-47
2022/05/24 04:09:26;;;;;;;5.57;5.07;;;;;;;;;;5051985;28;20033;-48
2022/05/24 04:11:54;;;;;;;5.85;5.22;;;;;;;;;;5052115;28;20033;-48
2022/05/24 04:14:20;;;;;;;10.65;4.80;;;;;;;;;;5055236;28;20025;-47
2022/05/24 04:16:45;;;;;;;21.33;6.03;;;;;;;;;;5055295;28;20107;-47
2022/05/24 04:19:11;;;;;;;14.55;5.22;;;;;;;;;;5055528;28;20107;-50
2022/05/24 04:21:36;;;;;;;8.70;4.55;;;;;;;;;;5055138;28;20029;-47
2022/05/24 04:24:02;;;;;;;4.82;2.72;;;;;;;;;;5055068;28;20044;-47
2022/05/24 04:26:28;;;;;;;3.13;2.08;;;;;;;;;;5055396;28;20096;-47
2022/05/24 04:28:53;;;;;;;5.60;2.53;;;;;;;;;;5055250;28;20028;-46
2022/05/24 04:31:19;;;;;;;10.27;4.28;;;;;;;;;;5055308;28;20373;-50
2022/05/24 04:33:44;;;;;;;6.70;3.67;;;;;;;;;;5055210;28;20028;-46
2022/05/24 04:36:09;;;;;;;12.68;5.47;;;;;;;;;;5054842;28;20025;-51
2022/05/24 04:38:35;;;;;;;5.15;3.25;;;;;;;;;;5054694;28;20017;-50
2022/05/24 04:43:44;;;;;;;8.20;3.97;;;;;;;;;;5054753;28;20040;-53
2022/05/24 04:46:12;;;;;;;4.95;2.63;;;;;;;;;;5054833;28;20029;-52
2022/05/24 04:48:37;;;;;;;7.40;4.20;;;;;;;;;;5054660;28;20051;-50
2022/05/24 04:51:03;;;;;;;7.90;5.00;;;;;;;;;;5054414;28;20115;-50
2022/05/24 04:53:28;;;;;;;6.88;5.30;;;;;;;;;;5054273;28;20033;-48
2022/05/24 04:55:54;;;;;;;10.10;4.97;;;;;;;;;;5054341;28;20025;-51
2022/05/24 04:58:20;;;;;;;7.15;3.60;;;;;;;;;;5054403;28;20021;-47
2022/05/24 05:00:46;;;;;;;4.60;3.60;;;;;;;;;;5054219;28;20039;-46
2022/05/24 05:03:14;;;;;;;6.30;3.47;;;;;;;;;;5054501;28;20036;-48
2022/05/24 05:05:40;;;;;;;5.72;2.92;;;;;;;;;;5054239;28;20044;-51
2022/05/24 05:08:06;;;;;;;3.70;2.85;;;;;;;;;;5054215;28;20523;-52
2022/05/24 05:10:34;;;;;;;3.53;2.80;;;;;;;;;;5054116;28;20485;-50
2022/05/24 05:13:01;;;;;;;3.55;2.70;;;;;;;;;;5054404;28;20051;-47
2022/05/24 05:15:27;;;;;;;6.05;2.17;;;;;;;;;;5054432;28;20033;-53
2022/05/24 05:18:02;;;;;;;3.50;2.05;;;;;;;;;;5054376;28;20384;-51
2022/05/24 05:20:28;;;;;;;2.38;2.17;;;;;;;;;;5054375;28;20021;-48
2022/05/24 05:22:53;;;;;;;3.55;1.95;;;;;;;;;;5054055;28;20025;-46
2022/05/24 05:25:19;;;;;;;7.55;4.88;;;;;;;;;;5054203;28;20025;-46
2022/05/24 05:27:44;;;;;;;6.78;4.75;;;;;;;;;;5053774;28;20481;-48
2022/05/24 05:32:54;;;;;;;2.30;1.88;;;;;;;;;;5053970;28;20576;-47
2022/05/24 05:35:20;;;;;;;2.90;2.33;;;;;;;;;;5053751;28;20116;-47
2022/05/24 05:37:45;;;;;;;3.53;3.05;;;;;;;;;;5053778;28;20099;-47
2022/05/24 05:40:12;;;;;;;2.65;2.45;;;;;;;;;;5053643;28;20396;-45
2022/05/24 05:42:38;;;;;;;5.38;2.70;;;;;;;;;;5053839;28;20020;-45
2022/05/24 05:45:06;;;;;;;3.03;2.83;;;;;;;;;;5053512;28;20040;-49
2022/05/24 05:47:32;;;;;;;6.05;5.43;;;;;;;;;;5053499;28;20412;-45
2022/05/24 05:49:57;;;;;;;4.05;3.42;;;;;;;;;;5053389;28;20107;-46
2022/05/24 05:52:23;;;;;;;3.90;3.53;;;;;;;;;;5053407;28;20025;-44
2022/05/24 05:54:48;;;;;;;10.85;4.32;;;;;;;;;;5035138;28;20021;-44
2022/05/24 05:57:15;;;;;;;4.32;3.20;;;;;;;;;;5053071;28;20029;-46
2022/05/24 05:59:40;;;;;;;10.38;3.30;;;;;;;;;;5053260;28;20508;-46
2022/05/24 06:02:07;;;;;;;3.40;2.47;;;;;;;;;;5035741;28;20053;-44
2022/05/24 06:04:33;;;;;;;4.63;2.35;;;;;;;;;;5035276;28;20384;-44
2022/05/24 06:06:59;;;;;;;3.10;2.80;;;;;;;;;;5052907;28;20041;-43
2022/05/24 06:09:25;;;;;;;4.30;2.88;;;;;;;;;;5053032;28;20282;-45
2022/05/24 06:11:50;;;;;;;2.72;2.53;;;;;;;;;;5053088;28;20056;-45
2022/05/24 06:14:15;;;;;;;3.63;2.85;;;;;;;;;;5053273;28;20076;-44
2022/05/24 06:16:41;;;;;;;3.00;2.35;;;;;;;;;;5053106;28;20029;-44
2022/05/24 06:19:07;;;;;;;5.88;3.35;;;;;;;;;;5053188;28;20036;-44
2022/05/24 06:21:33;;;;;;;4.13;2.33;;;;;;;;;;5052849;28;20043;-45
2022/05/24 06:24:03;;;;;;;2.38;2.17;;;;;;;;;;5053035;28;20044;-48
2022/05/24 06:26:30;;;;;;;2.75;2.28;;;;;;;;;;5052796;28;20035;-46
2022/05/24 06:28:57;;;;;;;2.85;2.33;;;;;;;;;;5035021;28;20527;-44
2022/05/24 06:31:23;;;;;;;2.50;2.30;;;;;;;;;;5035160;28;20020;-47
2022/05/24 06:33:48;;;;;;;5.25;1.92;;;;;;;;;;5052740;28;20025;-45
2022/05/24 06:36:14;;;;;;;1.70;1.60;;;;;;;;;;5034552;28;20028;-49
2022/05/24 06:38:40;;;;;;;3.20;1.88;;;;;;;;;;5048104;28;20511;-46
2022/05/24 06:41:05;;;;;;;2.63;2.42;;;;;;;;;;5033940;28;20052;-47
2022/05/24 06:43:32;;;;;;;2.13;1.92;;;;;;;;;;5032350;28;20029;-49
2022/05/24 06:45:57;;;;;;;2.45;1.92;;;;;;;;;;5032600;28;20026;-44
2022/05/24 06:48:22;;;;;;;2.10;1.92;;;;;;;;;;5032479;28;20047;-46
2022/05/24 06:50:48;;;;;;;1.13;1.02;;;;;;;;;;5032179;28;20657;-46
2022/05/24 06:53:14;;;;;;;2.22;1.13;;;;;;;;;;5032694;28;20108;-45
2022/05/24 06:55:40;;;;;;;2.13;1.80;;;;;;;;;;5032649;28;20055;-47
2022/05/24 06:58:05;;;;;;;5.50;2.60;;;;;;;;;;5032639;28;20353;-46
2022/05/24 07:03:16;;;;;;;3.95;2.80;;;;;;;;;;5032329;28;20099;-45
2022/05/24 07:05:43;;;;;;;4.55;2.03;;;;;;;;;;5032254;28;20053;-46
2022/05/24 07:08:09;;;;;;;2.50;2.30;;;;;;;;;;5032465;28;20061;-47
2022/05/24 07:10:36;;;;;;;6.28;3.17;;;;;;;;;;5032243;28;20048;-45
2022/05/24 07:13:05;;;;;;;5.03;1.85;;;;;;;;;;5031624;28;20086;-47
2022/05/24 07:15:31;;;;;;;3.22;2.47;;;;;;;;;;5032373;28;20029;-47
2022/05/24 07:17:56;;;;;;;8.50;2.38;;;;;;;;;;5032166;28;20104;-48
2022/05/24 07:20:23;;;;;;;1.73;1.63;;;;;;;;;;5031946;28;20041;-46
2022/05/24 07:22:49;;;;;;;3.92;2.30;;;;;;;;;;5032241;28;20025;-46
2022/05/24 07:25:16;;;;;;;2.58;2.38;;;;;;;;;;5032156;28;20484;-48
2022/05/24 07:27:42;;;;;;;2.35;2.15;;;;;;;;;;5032073;28;20040;-49
2022/05/24 07:30:08;;;;;;;1.83;1.67;;;;;;;;;;5032371;28;20401;-46
2022/05/24 07:32:34;;;;;;;2.75;2.00;;;;;;;;;;5031868;28;20025;-46
2022/05/24 07:34:59;;;;;;;3.80;2.38;;;;;;;;;;5031892;28;20033;-46
2022/05/24 07:37:25;;;;;;;2.75;2.55;;;;;;;;;;5032295;28;20029;-47
2022/05/24 07:45:47;;;;;;;1.65;1.55;;;;;;;;;;5031914;28;20424;-47
2022/05/24 07:48:05;;;;;;;2.30;2.10;;;;;;;;;;5034305;28;20040;-49
2022/05/24 07:50:31;;;;;;;2.38;2.17;;;;;;;;;;5035821;28;20026;-49
2022/05/24 07:52:56;;;;;;;3.40;2.28;;;;;;;;;;5035669;28;20053;-47
2022/05/24 07:55:22;;;;;;;2.88;2.00;;;;;;;;;;5018179;28;20385;-48
2022/05/24 07:57:48;;;;;;;1.92;1.63;;;;;;;;;;5035710;28;20033;-46
2022/05/24 08:00:13;;;;;;;2.97;2.25;;;;;;;;;;5035049;28;20465;-48
2022/05/24 08:02:39;;;;;;;1.75;1.38;;;;;;;;;;5035728;28;20029;-49
2022/05/24 08:05:06;;;;;;;1.50;1.40;;;;;;;;;;5035341;28;20029;-49
2022/05/24 08:07:31;;;;;;;1.83;1.45;;;;;;;;;;5035658;28;20122;-48
2022/05/24 08:09:57;;;;;;;2.03;1.63;;;;;;;;;;5035443;28;20021;-49
2022/05/24 08:12:23;;;;;;;1.75;1.48;;;;;;;;;;5035357;28;20025;-48
2022/05/24 08:14:49;;;;;;;1.50;1.40;;;;;;;;;;5035389;28;20108;-48
2022/05/24 08:17:14;;;;;;;2.50;1.80;;;;;;;;;;5035233;28;20435;-50
2022/05/24 08:19:40;;;;;;;3.80;1.48;;;;;;;;;;5034918;28;20053;-47
2022/05/24 08:22:06;;;;;;;3.95;1.60;;;;;;;;;;5035062;28;20033;-48
2022/05/24 08:24:32;;;;;;;1.50;1.40;;;;;;;;;;5035185;28;20033;-52
2022/05/24 08:26:57;;;;;;;1.88;1.75;;;;;;;;;;5035122;28;20079;-48
2022/05/24 08:29:23;;;;;;;2.15;1.52;;;;;;;;;;5035337;28;20444;-46
2022/05/24 08:31:49;;;;;;;1.67;1.58;;;;;;;;;;5034230;28;20033;-46
2022/05/24 08:34:16;;;;;;;1.10;1.10;;;;;;;;;;5033605;28;20033;-48
2022/05/24 08:36:42;;;;;;;3.10;1.65;;;;;;;;;;5033347;28;20036;-47
2022/05/24 08:39:07;;;;;;;2.25;1.92;;;;;;;;;;5033341;28;20029;-51
2022/05/24 08:41:50;;;;;;;1.58;1.48;;;;;;;;;;5032985;28;20040;-52
2022/05/24 08:49:59;;;;;;;1.92;1.83;;;;;;;;;;5053393;28;20138;-49
2022/05/24 08:52:33;;;;;;;1.75;1.52;;;;;;;;;;5053205;28;20460;-47
2022/05/24 08:54:59;;;;;;;3.70;2.20;;;;;;;;;;5053123;28;20040;-47
2022/05/24 08:57:47;;;;;;;3.70;1.70;;;;;;;;;;5052945;28;20037;-48
2022/05/24 09:00:18;;;;;;;2.00;1.58;;;;;;;;;;5042902;28;20112;-47
2022/05/24 09:02:46;;;;;;;1.80;1.60;;;;;;;;;;5052588;28;20579;-48
2022/05/24 09:05:16;;;;;;;5.47;2.05;;;;;;;;;;5052539;28;20057;-47
2022/05/24 09:07:57;;;;;;;1.67;1.50;;;;;;;;;;5052751;28;20473;-51
2022/05/24 09:10:28;;;;;;;3.22;1.55;;;;;;;;;;5052989;28;20033;-48
2022/05/24 09:13:24;;;;;;;5.97;1.20;;;;;;;;;;5052636;28;20039;-48
2022/05/24 09:16:00;;;;;;;1.30;1.20;;;;;;;;;;5052347;28;20033;-49
2022/05/24 09:18:40;;;;;;;1.38;1.27;;;;;;;;;;5052752;28;20033;-48
2022/05/24 09:21:06;;;;;;;1.52;1.42;;;;;;;;;;5052775;28;20086;-48
2022/05/24 09:23:52;;;;;;;1.60;1.40;;;;;;;;;;5052263;28;20033;-52
2022/05/24 09:26:24;;;;;;;2.78;1.45;;;;;;;;;;5052787;28;20033;-48
2022/05/24 09:28:51;;;;;;;1.60;1.50;;;;;;;;;;5052595;28;20033;-49
2022/05/24 09:31:22;;;;;;;1.65;1.48;;;;;;;;;;5052508;28;20368;-51
2022/05/24 09:33:54;;;;;;;2.30;1.60;;;;;;;;;;5052388;28;20044;-54
2022/05/24 09:36:39;;;;;;;1.67;1.58;;;;;;;;;;5052045;28;20028;-48
2022/05/24 09:39:20;;;;;;;3.42;1.70;;;;;;;;;;5052227;28;20021;-48
2022/05/24 09:41:58;;;;;;;1.95;1.80;;;;;;;;;;5051970;28;20684;-47
2022/05/24 09:44:25;;;;;;;2.03;1.40;;;;;;;;;;5036419;28;20489;-53
2022/05/24 09:46:51;;;;;;;1.40;1.30;;;;;;;;;;4997981;28;20056;-50
2022/05/24 09:49:26;;;;;;;1.63;1.52;;;;;;;;;;5032108;28;20061;-46
2022/05/24 09:51:56;;;;;;;2.00;1.80;;;;;;;;;;5032014;28;20068;-48
2022/05/24 09:54:26;;;;;;;2.58;2.08;;;;;;;;;;5031784;28;20087;-49
2022/05/24 09:57:08;;;;;;;3.20;1.38;;;;;;;;;;5031977;28;20045;-52
2022/05/24 09:59:39;;;;;;;2.95;1.70;;;;;;;;;;5031947;28;20033;-51
2022/05/24 10:02:28;;;;;;;1.80;1.70;;;;;;;;;;5031651;28;20036;-44
2022/05/24 10:04:54;;;;;;;2.53;2.33;;;;;;;;;;5031434;28;20047;-52
2022/05/24 10:07:28;;;;;;;1.73;1.63;;;;;;;;;;5031889;28;20141;-46
2022/05/24 10:10:17;;;;;;;1.70;1.55;;;;;;;;;;5031014;28;20049;-47
2022/05/24 10:12:52;;;;;;;1.83;1.73;;;;;;;;;;5031636;28;20100;-47
2022/05/24 10:15:27;;;;;;;1.85;1.55;;;;;;;;;;5031493;28;20503;-53
2022/05/24 10:18:10;;;;;;;2.78;1.40;;;;;;;;;;5031573;28;20037;-47
2022/05/24 10:21:07;;;;;;;2.88;1.60;;;;;;;;;;5031555;28;20032;-45
2022/05/24 10:24:04;;;;;;;2.88;1.58;;;;;;;;;;5031513;28;20037;-46
2022/05/24 10:27:05;;;;;;;2.17;1.90;;;;;;;;;;5031554;28;20026;-47
2022/05/24 10:29:49;;;;;;;2.35;1.55;;;;;;;;;;5031195;28;20035;-46
2022/05/24 10:38:45;;;;;;;7.07;1.88;;;;;;;;;;5031576;28;20076;-43
2022/05/24 10:41:15;;;;;;;2.95;1.60;;;;;;;;;;5031316;28;20425;-46
2022/05/24 10:44:03;;;;;;;6.10;1.63;;;;;;;;;;5031242;28;20037;-44
2022/05/24 10:46:51;;;;;;;1.60;1.50;;;;;;;;;;5030724;28;20083;-46
2022/05/24 10:49:39;;;;;;;1.80;1.70;;;;;;;;;;5030642;28;20847;-46
2022/05/24 10:52:15;;;;;;;1.83;1.42;;;;;;;;;;5031182;28;20385;-46
2022/05/24 10:55:20;;;;;;;2.13;1.65;;;;;;;;;;5030919;28;20118;-45
2022/05/24 10:58:09;;;;;;;3.75;1.60;;;;;;;;;;5022048;28;20127;-48
2022/05/24 11:00:40;;;;;;;1.67;1.50;;;;;;;;;;5031153;28;20033;-44
2022/05/24 11:03:17;;;;;;;1.50;1.27;;;;;;;;;;5030571;28;20553;-43
2022/05/24 11:05:44;;;;;;;1.85;1.67;;;;;;;;;;5030759;28;20073;-44
2022/05/24 11:08:43;;;;;;;2.22;2.03;;;;;;;;;;5030356;28;20536;-47
2022/05/24 11:11:47;;;;;;;1.17;1.17;;;;;;;;;;5030474;28;20048;-45
2022/05/24 11:14:25;;;;;;;1.70;1.60;;;;;;;;;;5007666;28;20115;-48
2022/05/24 11:16:52;;;;;;;2.40;1.60;;;;;;;;;;5030925;28;20033;-48
2022/05/24 11:19:21;;;;;;;1.55;1.42;;;;;;;;;;5030915;28;20030;-47
2022/05/24 11:22:00;;;;;;;1.35;1.27;;;;;;;;;;5032775;28;20466;-45
2022/05/24 11:24:52;;;;;;;1.40;1.30;;;;;;;;;;5034931;28;20034;-44
2022/05/24 11:27:36;;;;;;;5.72;1.80;;;;;;;;;;5034852;28;20120;-48
2022/05/24 11:30:29;;;;;;;2.00;1.63;;;;;;;;;;5034488;28;20029;-47
2022/05/24 11:33:07;;;;;;;1.77;1.40;;;;;;;;;;5034537;28;20082;-46
2022/05/24 11:35:39;;;;;;;1.70;1.60;;;;;;;;;;5034647;28;20037;-46
2022/05/24 11:38:20;;;;;;;1.40;1.30;;;;;;;;;;5034421;28;20055;-46
2022/05/24 11:40:54;;;;;;;6.05;1.30;;;;;;;;;;5034645;28;20374;-47
2022/05/24 11:43:35;;;;;;;1.48;1.38;;;;;;;;;;5034273;28;20049;-46
2022/05/24 11:46:08;;;;;;;2.20;1.42;;;;;;;;;;5034464;28;20121;-46
2022/05/24 11:48:44;;;;;;;2.55;2.00;;;;;;;;;;5034478;28;20134;-45
2022/05/24 11:51:36;;;;;;;2.17;1.90;;;;;;;;;;5016329;28;20504;-48
2022/05/24 11:54:08;;;;;;;2.35;1.73;;;;;;;;;;5034065;28;20028;-45
2022/05/24 11:56:33;;;;;;;1.63;1.42;;;;;;;;;;5034296;28;20438;-45
2022/05/24 11:59:03;;;;;;;1.85;1.35;;;;;;;;;;5033978;28;20064;-46
2022/05/24 12:01:55;;;;;;;2.20;1.85;;;;;;;;;;5033917;28;20530;-46
2022/05/24 12:09:59;;;;;;;3.25;1.98;;;;;;;;;;5033690;28;20476;-45
2022/05/24 12:12:49;;;;;;;6.47;2.08;;;;;;;;;;5033340;28;20025;-45
2022/05/24 12:15:18;;;;;;;8.23;1.75;;;;;;;;;;5033774;28;20500;-46
2022/05/24 12:17:50;;;;;;;2.75;1.95;;;;;;;;;;5033725;28;20428;-49
2022/05/24 12:20:34;;;;;;;1.50;1.20;;;;;;;;;;5034686;28;20028;-49
2022/05/24 12:23:14;;;;;;;2.10;1.70;;;;;;;;;;5030481;28;20545;-48
2022/05/24 12:26:07;;;;;;;1.42;1.33;;;;;;;;;;5033687;28;20095;-45
2022/05/24 12:28:38;;;;;;;2.55;1.92;;;;;;;;;;5033384;28;20531;-51
2022/05/24 12:31:13;;;;;;;2.08;1.88;;;;;;;;;;5033737;28;20120;-47
2022/05/24 12:34:00;;;;;;;3.08;1.90;;;;;;;;;;5032130;28;20362;-49
2022/05/24 12:36:32;;;;;;;3.58;2.05;;;;;;;;;;5033383;28;20488;-47
2022/05/24 12:39:18;;;;;;;2.05;1.55;;;;;;;;;;5033478;28;20433;-46
2022/05/24 12:41:55;;;;;;;5.82;2.28;;;;;;;;;;5033136;28;20025;-46
2022/05/24 12:44:32;;;;;;;5.30;2.10;;;;;;;;;;5033031;28;20040;-49
2022/05/24 12:47:05;;;;;;;1.95;1.80;;;;;;;;;;5033199;28;20018;-48
2022/05/24 12:49:58;;;;;;;1.60;1.50;;;;;;;;;;5033159;28;20063;-49
2022/05/24 12:52:27;;;;;;;2.20;1.60;;;;;;;;;;5033453;28;20029;-50
2022/05/24 12:54:58;;;;;;;2.15;1.50;;;;;;;;;;5032730;28;20041;-44
2022/05/24 12:57:26;;;;;;;1.42;1.33;;;;;;;;;;5032588;28;20104;-49
2022/05/24 12:59:57;;;;;;;1.85;1.70;;;;;;;;;;5031679;28;20041;-54
2022/05/24 13:02:28;;;;;;;3.03;2.20;;;;;;;;;;5033193;28;20036;-50
2022/05/24 13:04:57;;;;;;;1.80;1.55;;;;;;;;;;5033196;28;20105;-53
2022/05/24 13:07:38;;;;;;;1.88;1.70;;;;;;;;;;5033014;28;20056;-54
2022/05/24 13:10:12;;;;;;;4.03;2.10;;;;;;;;;;5033319;28;20045;-56
2022/05/24 13:12:37;;;;;;;1.35;1.02;;;;;;;;;;5033112;28;20055;-51
2022/05/24 13:15:09;;;;;;;4.80;1.90;;;;;;;;;;5033008;28;20108;-49
2022/05/24 13:17:41;;;;;;;2.55;2.03;;;;;;;;;;5033052;28;20498;-52
2022/05/24 13:20:11;;;;;;;5.85;1.30;;;;;;;;;;5033627;28;20049;-55
2022/05/24 13:22:50;;;;;;;1.13;1.02;;;;;;;;;;5032595;28;20604;-49
2022/05/24 13:25:21;;;;;;;3.40;1.50;;;;;;;;;;5032798;28;20120;-53
2022/05/24 13:27:51;;;;;;;2.20;2.00;;;;;;;;;;5032517;28;20032;-48
2022/05/24 13:33:48;;;;;;;1.40;1.20;;;;;;;;;;4990336;28;20064;-49
2022/05/24 13:36:16;;;;;;;3.20;1.95;;;;;;;;;;4987050;28;20038;-53
2022/05/24 13:38:43;;;;;;;1.63;1.45;;;;;;;;;;5017790;28;20518;-48
2022/05/24 13:41:10;;;;;;;3.17;1.63;;;;;;;;;;5034693;28;20029;-54
2022/05/24 13:43:37;;;;;;;4.65;2.22;;;;;;;;;;5032072;28;20042;-50
2022/05/24 13:46:12;;;;;;;2.75;1.75;;;;;;;;;;5031761;28;20037;-45
2022/05/24 13:48:52;;;;;;;3.05;1.80;;;;;;;;;;5032168;28;20704;-45
2022/05/24 13:51:25;;;;;;;6.72;2.28;;;;;;;;;;5031972;28;20473;-45
2022/05/24 13:53:51;;;;;;;3.75;1.30;;;;;;;;;;5031895;28;20511;-46
2022/05/24 13:56:22;;;;;;;2.53;1.73;;;;;;;;;;5031829;28;20057;-48
2022/05/24 13:58:51;;;;;;;1.75;1.65;;;;;;;;;;5031769;28;20029;-47
2022/05/24 14:01:27;;;;;;;2.47;1.95;;;;;;;;;;5031713;28;20045;-48
2022/05/24 14:04:17;;;;;;;2.63;1.90;;;;;;;;;;5031028;28;20036;-49
2022/05/24 14:06:52;;;;;;;;;;;;;;;;;;5031997;28;20104;-52
2022/05/24 14:09:19;;;;;;;2.15;1.70;;;;;;;;;;5031949;28;19987;-50
2022/05/24 14:11:56;;;;;;;2.20;1.35;;;;;;;;;;5031453;28;20025;-53
2022/05/24 14:14:23;;;;;;;2.05;1.65;;;;;;;;;;5031693;28;20441;-48
2022/05/24 14:16:50;;;;;;;1.27;1.20;;;;;;;;;;5031697;28;20029;-51
2022/05/24 14:19:15;;;;;;;1.77;1.67;;;;;;;;;;5031560;28;20033;-46
2022/05/24 14:21:41;;;;;;;2.03;1.30;;;;;;;;;;5031409;28;20025;-44
2022/05/24 14:24:12;;;;;;;2.10;1.92;;;;;;;;;;5031022;28;20103;-47
2022/05/24 14:26:42;;;;;;;1.80;1.40;;;;;;;;;;5031414;28;20555;-51
2022/05/24 14:29:08;;;;;;;1.65;1.50;;;;;;;;;;5031589;28;20033;-50
2022/05/24 14:31:34;;;;;;;6.10;1.35;;;;;;;;;;5031348;28;20025;-51
2022/05/24 14:34:00;;;;;;;1.50;1.40;;;;;;;;;;5030517;28;20032;-51
2022/05/24 14:36:26;;;;;;;2.55;1.50;;;;;;;;;;5031565;28;20029;-50
2022/05/24 14:38:51;;;;;;;5.35;1.80;;;;;;;;;;5030914;28;20806;-52
2022/05/24 14:41:17;;;;;;;2.05;1.38;;;;;;;;;;5031257;28;20100;-54
2022/05/24 14:43:48;;;;;;;42.78;3.25;;;;;;;;;;5030799;28;20461;-50
2022/05/24 14:46:14;;;;;;;3.90;1.70;;;;;;;;;;5030772;28;20084;-55
2022/05/24 14:48:40;;;;;;;3.17;1.80;;;;;;;;;;5031263;28;20026;-54
2022/05/24 14:51:07;;;;;;;1.27;1.17;;;;;;;;;;5031495;28;20470;-48
2022/05/24 14:53:32;;;;;;;7.97;1.95;;;;;;;;;;5030549;28;20090;-50
2022/05/24 14:55:59;;;;;;;1.55;1.45;;;;;;;;;;5030082;28;20021;-47
2022/05/24 14:58:25;;;;;;;2.45;1.60;;;;;;;;;;5031057;28;20087;-54
2022/05/24 15:00:50;;;;;;;1.67;1.40;;;;;;;;;;5030844;28;20479;-51
2022/05/24 15:03:16;;;;;;;2.10;1.90;;;;;;;;;;5030924;28;20029;-50
2022/05/24 15:05:41;;;;;;;2.30;2.10;;;;;;;;;;5030214;28;20745;-46
2022/05/24 15:16:30;;;;;;;2.15;1.75;;;;;;;;;;5030858;28;20555;-53
2022/05/24 15:18:56;;;;;;;19.42;2.75;;;;;;;;;;5029568;28;20025;-52
2022/05/24 15:21:25;;;;;;;3.70;2.60;;;;;;;;;;5012808;28;20048;-51
2022/05/24 15:23:56;;;;;;;4.57;1.75;;;;;;;;;;5030009;28;20041;-50
2022/05/24 15:26:27;;;;;;;9.13;2.08;;;;;;;;;;5030759;28;20057;-49
2022/05/24 15:28:55;;;;;;;1.63;1.52;;;;;;;;;;5029564;28;20108;-50
2022/05/24 15:31:25;;;;;;;1.58;1.48;;;;;;;;;;5029412;28;20026;-51
2022/05/24 15:33:51;;;;;;;;;;;;;;;;;;5031175;28;20057;-52
2022/05/24 15:36:17;;;;;;;1.90;1.25;;;;;;;;;;5030002;28;19912;-49
2022/05/24 15:38:42;;;;;;;2.15;1.80;;;;;;;;;;5030574;28;20113;-48
2022/05/24 15:41:08;;;;;;;4.00;2.20;;;;;;;;;;5030410;28;20030;-52
2022/05/24 15:43:44;;;;;;;1.60;1.42;;;;;;;;;;5030540;28;20038;-53
2022/05/24 15:46:14;;;;;;;1.20;1.10;;;;;;;;;;5030583;28;20028;-52
2022/05/24 15:48:40;;;;;;;;;;;;;;;;;;5030587;28;20124;-50
2022/05/24 15:51:06;;;;;;;3.03;1.70;;;;;;;;;;5030990;28;20007;-44
2022/05/24 15:53:31;;;;;;;1.27;1.17;;;;;;;;;;5030569;28;20485;-45
2022/05/24 15:55:58;;;;;;;2.72;1.85;;;;;;;;;;5032492;28;20541;-47
2022/05/24 15:58:25;;;;;;;2.42;1.85;;;;;;;;;;5038059;28;20038;-46
2022/05/24 16:00:51;;;;;;;5.97;2.15;;;;;;;;;;5039027;28;20108;-50
2022/05/24 16:03:17;;;;;;;2.40;2.20;;;;;;;;;;5047035;28;20563;-47